createdAt,value
2023-01-06T00:00:09.303Z,10.78
2023-01-06T00:01:09.300Z,10.84
2023-01-06T00:02:09.300Z,10.82
2023-01-06T00:03:09.275Z,10.81
2023-01-06T00:04:09.248Z,10.79
2023-01-06T00:05:09.272Z,10.89
2023-01-06T00:06:09.240Z,10.79
2023-01-06T00:07:09.213Z,10.81
2023-01-06T00:08:09.202Z,10.87
2023-01-06T00:09:09.322Z,10.81
2023-01-06T00:10:09.186Z,10.82
2023-01-06T00:11:09.169Z,10.84
2023-01-06T00:12:09.177Z,10.82
2023-01-06T00:13:09.144Z,10.78
2023-01-06T00:14:09.137Z,10.75
2023-01-06T00:15:09.131Z,10.86
2023-01-06T00:16:09.203Z,10.87
2023-01-06T00:17:09.109Z,10.81
2023-01-06T00:18:09.085Z,10.82
2023-01-06T00:19:09.086Z,10.79
2023-01-06T00:20:09.086Z,10.84
2023-01-06T00:21:09.055Z,10.76
2023-01-06T00:22:09.039Z,10.76
2023-01-06T00:23:09.030Z,10.79
2023-01-06T00:24:09.029Z,10.72
2023-01-06T00:25:09.028Z,10.81
2023-01-06T00:26:09.018Z,10.75
2023-01-06T00:27:08.994Z,10.76
2023-01-06T00:28:08.970Z,10.86
2023-01-06T00:29:08.962Z,10.81
2023-01-06T00:30:08.971Z,10.81
2023-01-06T00:31:09.022Z,10.79
2023-01-06T00:32:08.937Z,10.86
2023-01-06T00:33:08.914Z,10.74
2023-01-06T00:34:08.911Z,10.81
2023-01-06T00:35:08.897Z,10.79
2023-01-06T00:36:08.878Z,10.81
2023-01-06T00:37:08.881Z,10.82
2023-01-06T00:38:08.863Z,10.78
2023-01-06T00:39:08.851Z,10.68
2023-01-06T00:40:08.852Z,10.79
2023-01-06T00:41:08.951Z,10.76
2023-01-06T00:42:08.825Z,10.81
2023-01-06T00:43:08.805Z,10.69
2023-01-06T00:44:08.794Z,10.74
2023-01-06T00:45:08.792Z,10.76
2023-01-06T00:46:08.789Z,10.79
2023-01-06T00:47:08.771Z,10.86
2023-01-06T00:48:08.761Z,10.72
2023-01-06T00:49:08.752Z,10.81
2023-01-06T00:50:08.728Z,10.81
2023-01-06T00:51:08.715Z,10.79
2023-01-06T00:52:08.704Z,10.76
2023-01-06T00:53:08.717Z,10.78
2023-01-06T00:54:08.699Z,10.78
2023-01-06T00:55:08.671Z,10.86
2023-01-06T00:56:08.662Z,10.79
2023-01-06T00:57:08.763Z,10.84
2023-01-06T00:58:08.643Z,10.82
2023-01-06T00:59:08.636Z,10.79
2023-01-06T01:00:08.609Z,10.84
2023-01-06T01:01:08.780Z,10.84
2023-01-06T01:02:08.736Z,10.92
2023-01-06T01:03:08.625Z,10.76
2023-01-06T01:04:08.561Z,10.84
2023-01-06T01:05:08.567Z,10.82
2023-01-06T01:06:08.542Z,10.89
2023-01-06T01:07:08.545Z,10.82
2023-01-06T01:08:08.521Z,10.82
2023-01-06T01:09:08.526Z,10.82
2023-01-06T01:10:08.527Z,10.78
2023-01-06T01:11:08.492Z,10.82
2023-01-06T01:12:08.476Z,10.79
2023-01-06T01:13:08.580Z,10.74
2023-01-06T01:14:08.450Z,10.81
2023-01-06T01:15:08.458Z,10.75
2023-01-06T01:16:08.515Z,10.86
2023-01-06T01:17:08.433Z,10.79
2023-01-06T01:18:08.429Z,10.84
2023-01-06T01:19:08.425Z,10.82
2023-01-06T01:20:08.398Z,10.72
2023-01-06T01:21:08.393Z,10.76
2023-01-06T01:22:08.365Z,10.84
2023-01-06T01:23:08.353Z,10.82
2023-01-06T01:24:08.340Z,10.81
2023-01-06T01:25:08.345Z,10.82
2023-01-06T01:26:08.338Z,10.78
2023-01-06T01:27:08.317Z,10.84
2023-01-06T01:28:08.318Z,10.84
2023-01-06T01:29:08.401Z,10.86
2023-01-06T01:30:08.284Z,10.81
2023-01-06T01:31:08.326Z,10.84
2023-01-06T01:32:08.259Z,10.79
2023-01-06T01:33:08.243Z,10.76
2023-01-06T01:34:08.225Z,10.74
2023-01-06T01:35:08.217Z,10.79
2023-01-06T01:36:08.222Z,10.86
2023-01-06T01:37:08.209Z,10.84
2023-01-06T01:38:08.180Z,10.81
2023-01-06T01:39:08.188Z,10.79
2023-01-06T01:40:08.161Z,10.89
2023-01-06T01:41:08.169Z,10.86
2023-01-06T01:42:08.134Z,10.78
2023-01-06T01:43:08.151Z,10.79
2023-01-06T01:44:08.111Z,10.76
2023-01-06T01:45:08.220Z,10.84
2023-01-06T01:46:08.139Z,10.82
2023-01-06T01:47:08.098Z,10.82
2023-01-06T01:48:08.078Z,10.87
2023-01-06T01:49:08.060Z,10.79
2023-01-06T01:50:08.053Z,10.87
2023-01-06T01:51:08.037Z,10.92
2023-01-06T01:52:08.046Z,10.86
2023-01-06T01:53:08.019Z,10.82
2023-01-06T01:54:08.001Z,10.90
2023-01-06T01:55:08.054Z,10.89
2023-01-06T01:56:07.982Z,10.92
2023-01-06T01:57:07.972Z,10.81
2023-01-06T01:58:07.968Z,10.86
2023-01-06T01:59:07.948Z,10.82
2023-01-06T02:00:07.943Z,10.84
2023-01-06T02:01:08.177Z,10.76
2023-01-06T02:02:08.041Z,10.86
2023-01-06T02:03:07.992Z,10.76
2023-01-06T02:04:07.892Z,10.90
2023-01-06T02:05:07.893Z,10.84
2023-01-06T02:06:07.867Z,10.82
2023-01-06T02:07:07.859Z,10.93
2023-01-06T02:08:07.858Z,10.86
2023-01-06T02:09:07.873Z,10.90
2023-01-06T02:10:07.818Z,10.89
2023-01-06T02:11:07.830Z,10.90
2023-01-06T02:12:07.827Z,10.93
2023-01-06T02:13:07.790Z,10.97
2023-01-06T02:14:07.783Z,10.96
2023-01-06T02:15:07.771Z,10.86
2023-01-06T02:16:07.853Z,10.89
2023-01-06T02:17:07.857Z,11.02
2023-01-06T02:18:07.735Z,10.96
2023-01-06T02:19:07.737Z,10.93
2023-01-06T02:20:07.704Z,10.96
2023-01-06T02:21:07.695Z,10.99
2023-01-06T02:22:07.693Z,10.93
2023-01-06T02:23:07.682Z,10.92
2023-01-06T02:24:07.675Z,11.07
2023-01-06T02:25:07.655Z,10.97
2023-01-06T02:26:07.642Z,10.92
2023-01-06T02:27:07.655Z,10.97
2023-01-06T02:28:07.613Z,10.99
2023-01-06T02:29:07.632Z,10.99
2023-01-06T02:30:07.598Z,10.92
2023-01-06T02:31:07.618Z,10.96
2023-01-06T02:32:07.585Z,11.08
2023-01-06T02:33:07.682Z,11.02
2023-01-06T02:34:07.561Z,10.97
2023-01-06T02:35:07.581Z,11.02
2023-01-06T02:36:07.528Z,11.05
2023-01-06T02:37:07.535Z,11.04
2023-01-06T02:38:07.508Z,10.99
2023-01-06T02:39:07.520Z,11.04
2023-01-06T02:40:07.519Z,10.97
2023-01-06T02:41:07.487Z,10.96
2023-01-06T02:42:07.475Z,10.99
2023-01-06T02:43:07.468Z,10.92
2023-01-06T02:44:07.439Z,10.87
2023-01-06T02:45:14.552Z,11.00
2023-01-06T02:46:07.482Z,10.96
2023-01-06T02:47:07.410Z,11.00
2023-01-06T02:48:07.419Z,10.97
2023-01-06T02:49:07.492Z,11.04
2023-01-06T02:50:07.381Z,10.99
2023-01-06T02:51:07.371Z,11.02
2023-01-06T02:52:07.345Z,11.00
2023-01-06T02:53:07.357Z,10.96
2023-01-06T02:54:07.323Z,10.94
2023-01-06T02:55:07.323Z,10.97
2023-01-06T02:56:07.323Z,10.94
2023-01-06T02:57:07.325Z,10.94
2023-01-06T02:58:07.296Z,10.93
2023-01-06T02:59:07.283Z,11.07
2023-01-06T03:00:07.259Z,11.00
2023-01-06T03:01:07.310Z,11.05
2023-01-06T03:02:07.432Z,10.99
2023-01-06T03:03:07.261Z,11.08
2023-01-06T03:04:07.217Z,10.92
2023-01-06T03:05:07.315Z,11.04
2023-01-06T03:06:07.201Z,11.05
2023-01-06T03:07:07.187Z,11.10
2023-01-06T03:08:07.167Z,11.08
2023-01-06T03:09:07.180Z,11.05
2023-01-06T03:10:07.146Z,11.08
2023-01-06T03:11:07.137Z,10.92
2023-01-06T03:12:07.169Z,11.11
2023-01-06T03:13:07.154Z,11.05
2023-01-06T03:14:07.105Z,11.08
2023-01-06T03:15:07.127Z,11.04
2023-01-06T03:16:07.191Z,11.11
2023-01-06T03:17:07.083Z,11.05
2023-01-06T03:18:07.060Z,11.17
2023-01-06T03:19:07.054Z,11.08
2023-01-06T03:20:07.073Z,11.08
2023-01-06T03:21:07.059Z,11.05
2023-01-06T03:22:07.011Z,11.00
2023-01-06T03:23:06.998Z,11.02
2023-01-06T03:24:07.018Z,11.05
2023-01-06T03:25:06.973Z,11.10
2023-01-06T03:26:07.014Z,11.11
2023-01-06T03:27:06.954Z,10.97
2023-01-06T03:28:06.943Z,11.04
2023-01-06T03:29:06.934Z,10.99
2023-01-06T03:30:06.953Z,11.04
2023-01-06T03:31:06.967Z,10.96
2023-01-06T03:32:06.899Z,10.99
2023-01-06T03:33:08.365Z,11.08
2023-01-06T03:34:06.874Z,11.04
2023-01-06T03:35:06.873Z,10.94
2023-01-06T03:36:06.852Z,10.97
2023-01-06T03:37:06.960Z,10.96
2023-01-06T03:38:06.832Z,11.07
2023-01-06T03:39:06.831Z,10.97
2023-01-06T03:40:06.817Z,10.99
2023-01-06T03:41:06.800Z,11.08
2023-01-06T03:42:06.810Z,10.96
2023-01-06T03:43:06.794Z,10.99
2023-01-06T03:44:06.760Z,10.97
2023-01-06T03:45:06.755Z,10.99
2023-01-06T03:46:06.748Z,11.05
2023-01-06T03:47:06.738Z,10.92
2023-01-06T03:48:06.718Z,10.99
2023-01-06T03:49:06.759Z,10.93
2023-01-06T03:50:06.694Z,10.97
2023-01-06T03:51:06.693Z,10.93
2023-01-06T03:52:06.674Z,10.99
2023-01-06T03:53:06.789Z,10.90
2023-01-06T03:54:06.660Z,10.84
2023-01-06T03:55:06.641Z,10.84
2023-01-06T03:56:06.650Z,10.86
2023-01-06T03:57:06.630Z,10.92
2023-01-06T03:58:06.628Z,10.81
2023-01-06T03:59:06.603Z,10.82
2023-01-06T04:00:06.576Z,10.87
2023-01-06T04:01:06.783Z,10.74
2023-01-06T04:02:06.567Z,10.78
2023-01-06T04:03:06.556Z,10.75
2023-01-06T04:04:06.617Z,10.76
2023-01-06T04:05:06.553Z,10.72
2023-01-06T04:06:06.511Z,10.74
2023-01-06T04:07:06.519Z,10.71
2023-01-06T04:08:06.495Z,10.68
2023-01-06T04:09:06.593Z,10.75
2023-01-06T04:10:06.467Z,10.72
2023-01-06T04:11:06.491Z,10.69
2023-01-06T04:12:06.452Z,10.75
2023-01-06T04:13:06.475Z,10.74
2023-01-06T04:14:06.432Z,10.69
2023-01-06T04:15:06.413Z,10.69
2023-01-06T04:16:06.432Z,10.76
2023-01-06T04:17:06.407Z,10.71
2023-01-06T04:18:06.414Z,10.64
2023-01-06T04:19:06.415Z,10.76
2023-01-06T04:20:06.360Z,10.74
2023-01-06T04:21:06.344Z,10.72
2023-01-06T04:22:06.335Z,10.74
2023-01-06T04:23:06.316Z,10.76
2023-01-06T04:24:06.313Z,10.72
2023-01-06T04:25:06.417Z,10.71
2023-01-06T04:26:06.302Z,10.76
2023-01-06T04:27:06.282Z,10.72
2023-01-06T04:28:06.284Z,10.81
2023-01-06T04:29:06.262Z,10.74
2023-01-06T04:30:06.263Z,10.79
2023-01-06T04:31:06.323Z,10.79
2023-01-06T04:32:06.221Z,10.87
2023-01-06T04:33:06.206Z,10.79
2023-01-06T04:34:06.230Z,10.82
2023-01-06T04:35:06.186Z,10.87
2023-01-06T04:36:06.196Z,10.86
2023-01-06T04:37:06.169Z,10.76
2023-01-06T04:38:06.155Z,10.84
2023-01-06T04:39:06.141Z,10.82
2023-01-06T04:40:06.167Z,10.78
2023-01-06T04:41:06.227Z,10.79
2023-01-06T04:42:06.111Z,10.86
2023-01-06T04:43:06.098Z,10.78
2023-01-06T04:44:06.099Z,10.86
2023-01-06T04:45:06.114Z,10.81
2023-01-06T04:46:06.166Z,10.86
2023-01-06T04:47:06.043Z,10.86
2023-01-06T04:48:06.079Z,10.86
2023-01-06T04:49:06.041Z,10.76
2023-01-06T04:50:06.028Z,10.89
2023-01-06T04:51:06.005Z,10.78
2023-01-06T04:52:05.997Z,10.82
2023-01-06T04:53:06.007Z,10.84
2023-01-06T04:54:05.977Z,10.84
2023-01-06T04:55:05.975Z,10.82
2023-01-06T04:56:05.966Z,10.92
2023-01-06T04:57:06.072Z,10.90
2023-01-06T04:58:05.931Z,10.89
2023-01-06T04:59:05.914Z,10.92
2023-01-06T05:00:05.916Z,10.90
2023-01-06T05:01:06.053Z,10.99
2023-01-06T05:02:06.048Z,10.94
2023-01-06T05:03:05.875Z,10.97
2023-01-06T05:04:05.918Z,10.93
2023-01-06T05:05:05.851Z,10.96
2023-01-06T05:06:05.839Z,10.89
2023-01-06T05:07:05.835Z,10.92
2023-01-06T05:08:05.817Z,10.93
2023-01-06T05:09:05.836Z,10.90
2023-01-06T05:10:05.800Z,10.93
2023-01-06T05:11:05.787Z,10.93
2023-01-06T05:12:05.784Z,10.93
2023-01-06T05:13:05.879Z,10.94
2023-01-06T05:14:05.765Z,10.94
2023-01-06T05:15:05.732Z,10.99
2023-01-06T05:16:05.783Z,10.96
2023-01-06T05:17:05.714Z,10.96
2023-01-06T05:18:05.713Z,11.02
2023-01-06T05:19:05.701Z,11.00
2023-01-06T05:20:05.678Z,10.96
2023-01-06T05:21:05.662Z,10.99
2023-01-06T05:22:05.714Z,11.04
2023-01-06T05:23:05.645Z,11.07
2023-01-06T05:24:05.637Z,11.08
2023-01-06T05:25:05.646Z,10.99
2023-01-06T05:26:05.615Z,11.10
2023-01-06T05:27:05.601Z,11.08
2023-01-06T05:28:05.603Z,11.05
2023-01-06T05:29:05.707Z,11.04
2023-01-06T05:30:05.567Z,10.97
2023-01-06T05:31:05.582Z,11.00
2023-01-06T05:32:05.572Z,11.07
2023-01-06T05:33:05.537Z,10.99
2023-01-06T05:34:05.526Z,10.97
2023-01-06T05:35:05.515Z,11.00
2023-01-06T05:36:05.500Z,10.97
2023-01-06T05:37:05.503Z,11.00
2023-01-06T05:38:05.487Z,10.94
2023-01-06T05:39:05.468Z,10.92
2023-01-06T05:40:05.483Z,11.00
2023-01-06T05:41:05.443Z,10.99
2023-01-06T05:42:05.443Z,11.02
2023-01-06T05:43:05.437Z,10.96
2023-01-06T05:44:05.416Z,10.92
2023-01-06T05:45:05.521Z,10.94
2023-01-06T05:46:05.487Z,10.89
2023-01-06T05:47:05.377Z,10.92
2023-01-06T05:48:05.382Z,10.97
2023-01-06T05:49:05.356Z,10.94
2023-01-06T05:50:05.356Z,10.94
2023-01-06T05:51:05.335Z,10.97
2023-01-06T05:52:05.329Z,10.92
2023-01-06T05:53:05.352Z,10.92
2023-01-06T05:54:05.310Z,10.97
2023-01-06T05:55:05.288Z,10.94
2023-01-06T05:56:05.285Z,11.02
2023-01-06T05:57:05.265Z,10.94
2023-01-06T05:58:05.312Z,10.97
2023-01-06T05:59:05.259Z,10.97
2023-01-06T06:00:05.232Z,10.94
2023-01-06T06:01:05.425Z,10.93
2023-01-06T06:02:05.225Z,10.97
2023-01-06T06:03:05.203Z,10.92
2023-01-06T06:04:05.266Z,10.92
2023-01-06T06:05:05.163Z,10.97
2023-01-06T06:06:05.161Z,10.94
2023-01-06T06:07:05.143Z,10.99
2023-01-06T06:08:05.145Z,10.97
2023-01-06T06:09:05.132Z,10.89
2023-01-06T06:10:05.142Z,10.89
2023-01-06T06:11:05.104Z,10.86
2023-01-06T06:12:05.094Z,10.92
2023-01-06T06:13:05.082Z,10.94
2023-01-06T06:14:05.070Z,10.94
2023-01-06T06:15:05.101Z,10.99
2023-01-06T06:16:05.325Z,10.99
2023-01-06T06:17:05.054Z,10.90
2023-01-06T06:18:05.048Z,10.84
2023-01-06T06:19:05.022Z,10.96
2023-01-06T06:20:05.005Z,10.86
2023-01-06T06:21:04.991Z,10.89
2023-01-06T06:22:05.003Z,10.94
2023-01-06T06:23:04.999Z,10.90
2023-01-06T06:24:04.969Z,10.96
2023-01-06T06:25:04.948Z,10.89
2023-01-06T06:26:04.949Z,10.97
2023-01-06T06:27:04.943Z,10.90
2023-01-06T06:28:04.928Z,10.90
2023-01-06T06:29:04.914Z,10.93
2023-01-06T06:30:04.890Z,10.86
2023-01-06T06:31:04.902Z,10.87
2023-01-06T06:32:04.887Z,10.90
2023-01-06T06:33:04.975Z,10.84
2023-01-06T06:34:04.879Z,10.99
2023-01-06T06:35:04.914Z,10.97
2023-01-06T06:36:04.824Z,10.94
2023-01-06T06:37:04.819Z,10.90
2023-01-06T06:38:04.813Z,10.94
2023-01-06T06:39:04.803Z,10.90
2023-01-06T06:40:04.795Z,10.93
2023-01-06T06:41:04.773Z,10.97
2023-01-06T06:42:04.764Z,10.94
2023-01-06T06:43:04.747Z,10.93
2023-01-06T06:44:04.733Z,10.99
2023-01-06T06:45:04.745Z,10.97
2023-01-06T06:46:04.782Z,10.96
2023-01-06T06:47:04.695Z,10.96
2023-01-06T06:48:04.703Z,11.08
2023-01-06T06:49:04.796Z,11.00
2023-01-06T06:50:04.665Z,10.96
2023-01-06T06:51:04.682Z,10.96
2023-01-06T06:52:04.652Z,11.07
2023-01-06T06:53:04.644Z,10.99
2023-01-06T06:54:04.632Z,11.10
2023-01-06T06:55:04.612Z,11.10
2023-01-06T06:56:04.607Z,10.99
2023-01-06T06:57:04.583Z,10.99
2023-01-06T06:58:04.613Z,11.05
2023-01-06T06:59:04.574Z,11.08
2023-01-06T07:00:04.559Z,10.94
2023-01-06T07:01:04.782Z,11.04
2023-01-06T07:02:04.744Z,11.05
2023-01-06T07:03:04.519Z,10.97
2023-01-06T07:04:04.648Z,11.05
2023-01-06T07:05:04.620Z,11.07
2023-01-06T07:06:04.486Z,11.05
2023-01-06T07:07:04.471Z,11.07
2023-01-06T07:08:04.465Z,11.05
2023-01-06T07:09:04.469Z,11.04
2023-01-06T07:10:04.444Z,11.04
2023-01-06T07:11:04.425Z,11.12
2023-01-06T07:12:04.423Z,10.93
2023-01-06T07:13:05.140Z,11.08
2023-01-06T07:14:04.397Z,11.10
2023-01-06T07:15:04.416Z,11.08
2023-01-06T07:16:04.449Z,11.02
2023-01-06T07:17:04.390Z,10.97
2023-01-06T07:18:04.356Z,11.05
2023-01-06T07:19:04.340Z,10.89
2023-01-06T07:20:04.358Z,10.93
2023-01-06T07:21:04.469Z,10.93
2023-01-06T07:22:04.309Z,10.87
2023-01-06T07:23:04.296Z,10.96
2023-01-06T07:24:04.308Z,10.99
2023-01-06T07:25:04.283Z,10.87
2023-01-06T07:26:04.277Z,10.89
2023-01-06T07:27:04.254Z,10.84
2023-01-06T07:28:04.237Z,10.87
2023-01-06T07:29:04.237Z,10.93
2023-01-06T07:30:04.232Z,10.94
2023-01-06T07:31:04.251Z,10.89
2023-01-06T07:32:04.220Z,10.79
2023-01-06T07:33:04.178Z,10.86
2023-01-06T07:34:04.173Z,10.81
2023-01-06T07:35:04.157Z,10.89
2023-01-06T07:36:04.159Z,10.82
2023-01-06T07:37:04.263Z,10.87
2023-01-06T07:38:04.143Z,10.79
2023-01-06T07:39:04.116Z,10.79
2023-01-06T07:40:04.115Z,10.82
2023-01-06T07:41:04.116Z,10.90
2023-01-06T07:42:04.103Z,10.87
2023-01-06T07:43:04.076Z,10.87
2023-01-06T07:44:04.087Z,10.89
2023-01-06T07:45:04.060Z,10.89
2023-01-06T07:46:04.095Z,11.02
2023-01-06T07:47:04.032Z,10.96
2023-01-06T07:48:04.012Z,10.93
2023-01-06T07:49:04.027Z,10.94
2023-01-06T07:50:03.987Z,10.94
2023-01-06T07:51:04.004Z,10.89
2023-01-06T07:52:03.993Z,10.89
2023-01-06T07:53:04.071Z,10.89
2023-01-06T07:54:03.963Z,10.86
2023-01-06T07:55:03.989Z,10.93
2023-01-06T07:56:03.939Z,10.97
2023-01-06T07:57:03.948Z,10.89
2023-01-06T07:58:03.906Z,10.92
2023-01-06T07:59:03.898Z,10.92
2023-01-06T08:00:03.923Z,10.97
2023-01-06T08:01:03.872Z,10.96
2023-01-06T08:02:04.103Z,10.97
2023-01-06T08:03:03.973Z,10.96
2023-01-06T08:04:03.879Z,10.99
2023-01-06T08:05:03.831Z,11.00
2023-01-06T08:06:03.805Z,11.07
2023-01-06T08:07:03.797Z,11.05
2023-01-06T08:08:03.785Z,10.97
2023-01-06T08:09:03.905Z,11.00
2023-01-06T08:10:03.779Z,11.05
2023-01-06T08:11:03.751Z,10.89
2023-01-06T08:12:03.742Z,11.05
2023-01-06T08:13:03.737Z,10.86
2023-01-06T08:14:03.737Z,11.00
2023-01-06T08:15:03.707Z,10.89
2023-01-06T08:16:03.742Z,10.89
2023-01-06T08:17:03.681Z,10.86
2023-01-06T08:18:03.688Z,10.84
2023-01-06T08:19:03.700Z,10.90
2023-01-06T08:20:03.668Z,10.82
2023-01-06T08:21:03.662Z,10.89
2023-01-06T08:22:03.634Z,10.82
2023-01-06T08:23:03.710Z,10.81
2023-01-06T08:24:03.606Z,10.72
2023-01-06T08:25:03.730Z,10.84
2023-01-06T08:26:03.618Z,10.79
2023-01-06T08:27:03.572Z,10.71
2023-01-06T08:28:03.567Z,10.76
2023-01-06T08:29:03.566Z,10.76
2023-01-06T08:30:03.535Z,10.78
2023-01-06T08:31:03.658Z,10.82
2023-01-06T08:32:10.433Z,10.87
2023-01-06T08:33:04.520Z,10.86
2023-01-06T08:34:03.519Z,10.87
2023-01-06T08:35:03.487Z,10.84
2023-01-06T08:36:03.468Z,10.84
2023-01-06T08:37:03.476Z,10.78
2023-01-06T08:38:03.465Z,10.81
2023-01-06T08:39:03.461Z,10.82
2023-01-06T08:40:03.430Z,10.84
2023-01-06T08:41:03.533Z,10.79
2023-01-06T08:42:03.404Z,10.71
2023-01-06T08:43:03.409Z,10.72
2023-01-06T08:44:03.393Z,10.72
2023-01-06T08:45:03.372Z,10.76
2023-01-06T08:46:10.997Z,10.72
2023-01-06T08:47:03.365Z,10.76
2023-01-06T08:48:03.348Z,10.68
2023-01-06T08:49:03.332Z,10.75
2023-01-06T08:50:03.334Z,10.60
2023-01-06T08:51:03.303Z,10.69
2023-01-06T08:52:03.291Z,10.61
2023-01-06T08:53:03.283Z,10.59
2023-01-06T08:54:03.301Z,10.63
2023-01-06T08:55:03.256Z,10.60
2023-01-06T08:56:03.246Z,10.56
2023-01-06T08:57:03.354Z,10.57
2023-01-06T08:58:03.223Z,10.56
2023-01-06T08:59:03.219Z,10.60
2023-01-06T09:00:03.229Z,10.56
2023-01-06T09:01:03.204Z,10.49
2023-01-06T09:02:03.350Z,10.54
2023-01-06T09:03:03.173Z,10.51
2023-01-06T09:04:03.162Z,10.57
2023-01-06T09:05:03.202Z,10.59
2023-01-06T09:06:03.135Z,10.54
2023-01-06T09:07:03.122Z,10.53
2023-01-06T09:08:03.115Z,10.60
2023-01-06T09:09:03.112Z,10.67
2023-01-06T09:10:03.103Z,10.59
2023-01-06T09:11:03.094Z,10.71
2023-01-06T09:12:03.072Z,10.71
2023-01-06T09:13:03.173Z,10.67
2023-01-06T09:14:03.040Z,10.72
2023-01-06T09:15:03.047Z,10.72
2023-01-06T09:16:03.121Z,10.74
2023-01-06T09:17:03.010Z,10.68
2023-01-06T09:18:03.014Z,10.76
2023-01-06T09:19:02.986Z,10.74
2023-01-06T09:20:02.976Z,10.74
2023-01-06T09:21:02.985Z,10.71
2023-01-06T09:22:02.968Z,10.81
2023-01-06T09:23:02.956Z,10.86
2023-01-06T09:24:02.953Z,10.86
2023-01-06T09:25:02.924Z,10.89
2023-01-06T09:26:02.923Z,10.89
2023-01-06T09:27:02.905Z,10.89
2023-01-06T09:28:02.884Z,10.94
2023-01-06T09:29:03.021Z,10.97
2023-01-06T09:30:02.867Z,10.93
2023-01-06T09:31:02.905Z,10.97
2023-01-06T09:32:02.844Z,10.96
2023-01-06T09:33:02.831Z,10.92
2023-01-06T09:34:02.822Z,10.99
2023-01-06T09:35:02.807Z,10.94
2023-01-06T09:36:02.821Z,10.92
2023-01-06T09:37:02.787Z,10.93
2023-01-06T09:38:02.774Z,10.93
2023-01-06T09:39:02.798Z,10.96
2023-01-06T09:40:02.747Z,10.99
2023-01-06T09:41:02.741Z,10.92
2023-01-06T09:42:02.765Z,10.92
2023-01-06T09:43:02.722Z,10.96
2023-01-06T09:44:02.784Z,11.00
2023-01-06T09:45:02.841Z,11.00
2023-01-06T09:46:02.697Z,10.97
2023-01-06T09:47:02.671Z,10.97
2023-01-06T09:48:02.655Z,11.10
2023-01-06T09:49:02.665Z,10.94
2023-01-06T09:50:02.643Z,11.04
2023-01-06T09:51:02.650Z,10.92
2023-01-06T09:52:02.618Z,10.94
2023-01-06T09:53:02.604Z,10.94
2023-01-06T09:54:02.598Z,10.90
2023-01-06T09:55:02.597Z,10.96
2023-01-06T09:56:02.588Z,10.97
2023-01-06T09:57:02.564Z,11.08
2023-01-06T09:58:02.550Z,10.96
2023-01-06T09:59:02.536Z,11.02
2023-01-06T10:00:02.524Z,11.05
2023-01-06T10:01:02.640Z,11.14
2023-01-06T10:02:02.685Z,11.29
2023-01-06T10:03:02.498Z,11.32
2023-01-06T10:04:02.502Z,11.35
2023-01-06T10:05:02.481Z,11.36
2023-01-06T10:06:02.549Z,11.55
2023-01-06T10:07:02.473Z,11.45
2023-01-06T10:08:02.437Z,11.51
2023-01-06T10:09:02.421Z,11.52
2023-01-06T10:10:02.439Z,11.51
2023-01-06T10:11:02.405Z,11.48
2023-01-06T10:12:02.406Z,11.37
2023-01-06T10:13:02.384Z,11.40
2023-01-06T10:14:02.366Z,11.47
2023-01-06T10:15:02.380Z,11.48
2023-01-06T10:16:02.365Z,11.47
2023-01-06T10:17:02.520Z,11.36
2023-01-06T10:18:02.320Z,11.43
2023-01-06T10:19:02.318Z,11.25
2023-01-06T10:20:02.295Z,11.12
2023-01-06T10:21:02.289Z,11.15
2023-01-06T10:22:02.300Z,11.19
2023-01-06T10:23:02.290Z,11.14
2023-01-06T10:24:02.253Z,11.12
2023-01-06T10:25:02.261Z,11.15
2023-01-06T10:26:02.226Z,11.07
2023-01-06T10:27:02.252Z,11.05
2023-01-06T10:28:02.213Z,11.05
2023-01-06T10:29:02.199Z,11.08
2023-01-06T10:30:02.191Z,11.07
2023-01-06T10:31:02.218Z,11.14
2023-01-06T10:32:02.196Z,11.15
2023-01-06T10:33:02.191Z,11.18
2023-01-06T10:34:02.160Z,11.14
2023-01-06T10:35:02.137Z,11.11
2023-01-06T10:36:02.113Z,11.12
2023-01-06T10:37:02.146Z,11.08
2023-01-06T10:38:02.121Z,11.07
2023-01-06T10:39:02.085Z,11.10
2023-01-06T10:40:02.085Z,11.05
2023-01-06T10:41:02.060Z,11.11
2023-01-06T10:42:02.113Z,10.99
2023-01-06T10:43:02.051Z,11.15
2023-01-06T10:44:02.042Z,11.08
2023-01-06T10:45:02.167Z,11.10
2023-01-06T10:46:01.999Z,11.07
2023-01-06T10:47:01.995Z,11.10
2023-01-06T10:48:02.004Z,11.11
2023-01-06T10:49:02.088Z,11.02
2023-01-06T10:50:01.973Z,11.07
2023-01-06T10:51:01.965Z,11.10
2023-01-06T10:52:01.933Z,11.04
2023-01-06T10:53:01.939Z,11.05
2023-01-06T10:54:01.916Z,11.02
2023-01-06T10:55:01.904Z,10.99
2023-01-06T10:56:01.916Z,10.99
2023-01-06T10:57:01.904Z,11.07
2023-01-06T10:58:02.268Z,10.94
2023-01-06T10:59:01.855Z,10.94
2023-01-06T11:00:01.846Z,10.94
2023-01-06T11:01:01.914Z,11.02
2023-01-06T11:02:02.055Z,11.07
2023-01-06T11:03:14.367Z,11.00
2023-01-06T11:04:02.808Z,11.19
2023-01-06T11:05:01.922Z,11.05
2023-01-06T11:06:01.783Z,11.02
2023-01-06T11:07:01.831Z,11.05
2023-01-06T11:08:01.826Z,11.11
2023-01-06T11:09:01.748Z,11.08
2023-01-06T11:10:01.736Z,11.08
2023-01-06T11:11:01.725Z,10.99
2023-01-06T11:12:01.753Z,11.12
2023-01-06T11:13:01.708Z,11.04
2023-01-06T11:14:01.683Z,10.99
2023-01-06T11:15:01.686Z,11.05
2023-01-06T11:16:01.703Z,11.07
2023-01-06T11:17:01.667Z,11.18
2023-01-06T11:18:01.656Z,11.19
2023-01-06T11:19:01.655Z,11.22
2023-01-06T11:20:01.618Z,11.18
2023-01-06T11:21:01.723Z,11.18
2023-01-06T11:22:01.596Z,11.15
2023-01-06T11:23:01.610Z,11.18
2023-01-06T11:24:01.602Z,11.19
2023-01-06T11:25:01.584Z,11.29
2023-01-06T11:26:01.553Z,11.22
2023-01-06T11:27:01.585Z,11.32
2023-01-06T11:28:01.545Z,11.32
2023-01-06T11:29:01.600Z,11.44
2023-01-06T11:30:01.514Z,11.45
2023-01-06T11:31:01.497Z,11.51
2023-01-06T11:32:01.483Z,11.69
2023-01-06T11:33:01.498Z,11.78
2023-01-06T11:34:01.469Z,11.84
2023-01-06T11:35:01.451Z,11.88
2023-01-06T11:36:01.455Z,12.03
2023-01-06T11:37:01.553Z,12.03
2023-01-06T11:38:01.414Z,12.04
2023-01-06T11:39:01.427Z,12.17
2023-01-06T11:40:10.655Z,12.21
2023-01-06T11:41:02.385Z,12.22
2023-01-06T11:42:01.382Z,12.29
2023-01-06T11:43:01.364Z,12.27
2023-01-06T11:44:01.362Z,12.31
2023-01-06T11:45:01.337Z,12.40
2023-01-06T11:46:01.429Z,12.42
2023-01-06T11:47:01.364Z,12.47
2023-01-06T11:48:01.306Z,12.49
2023-01-06T11:49:01.305Z,12.60
2023-01-06T11:50:01.325Z,12.50
2023-01-06T11:51:01.284Z,12.58
2023-01-06T11:52:01.258Z,12.60
2023-01-06T11:53:01.372Z,12.62
2023-01-06T11:54:01.240Z,12.50
2023-01-06T11:55:01.229Z,12.42
2023-01-06T11:56:01.237Z,12.37
2023-01-06T11:57:01.204Z,12.25
2023-01-06T11:58:01.196Z,12.32
2023-01-06T11:59:01.176Z,12.28
2023-01-06T12:00:01.175Z,12.27
2023-01-06T12:01:01.154Z,12.32
2023-01-06T12:02:01.201Z,12.36
2023-01-06T12:03:01.198Z,12.36
2023-01-06T12:04:01.128Z,12.40
2023-01-06T12:05:01.121Z,12.43
2023-01-06T12:06:01.124Z,12.46
2023-01-06T12:07:01.087Z,12.50
2023-01-06T12:08:01.083Z,12.61
2023-01-06T12:09:01.215Z,12.61
2023-01-06T12:10:01.048Z,12.67
2023-01-06T12:11:01.070Z,12.70
2023-01-06T12:12:01.030Z,12.68
2023-01-06T12:13:01.021Z,12.76
2023-01-06T12:14:16.219Z,12.80
2023-01-06T12:15:03.548Z,12.91
2023-01-06T12:16:00.991Z,12.79
2023-01-06T12:17:01.112Z,12.68
2023-01-06T12:18:00.968Z,12.67
2023-01-06T12:19:01.077Z,12.67
2023-01-06T12:20:00.939Z,12.55
2023-01-06T12:21:00.940Z,12.46
2023-01-06T12:22:00.937Z,12.42
2023-01-06T12:23:00.915Z,12.37
2023-01-06T12:24:00.910Z,12.43
2023-01-06T12:25:01.013Z,12.43
2023-01-06T12:26:00.882Z,12.45
2023-01-06T12:27:00.877Z,12.36
2023-01-06T12:28:00.868Z,12.28
2023-01-06T12:29:00.852Z,12.25
2023-01-06T12:30:00.830Z,12.24
2023-01-06T12:31:00.912Z,12.21
2023-01-06T12:32:00.829Z,12.21
2023-01-06T12:33:00.800Z,12.17
2023-01-06T12:34:00.781Z,12.25
2023-01-06T12:35:00.796Z,12.24
2023-01-06T12:36:00.753Z,12.18
2023-01-06T12:37:00.746Z,12.18
2023-01-06T12:38:00.733Z,12.25
2023-01-06T12:39:00.731Z,12.20
2023-01-06T12:40:00.715Z,12.27
2023-01-06T12:41:00.826Z,12.22
2023-01-06T12:42:00.736Z,12.12
2023-01-06T12:43:00.694Z,12.06
2023-01-06T12:44:00.666Z,12.13
2023-01-06T12:45:00.674Z,12.12
2023-01-06T12:46:00.695Z,12.18
2023-01-06T12:47:00.725Z,12.13
2023-01-06T12:48:00.624Z,12.18
2023-01-06T12:49:00.621Z,12.06
2023-01-06T12:50:00.600Z,12.03
2023-01-06T12:51:00.583Z,12.02
2023-01-06T12:52:00.578Z,12.06